Lakeville, California
Current Conditions -  °F | °C
As of 3:35 AM on Tuesday 21 Oct 2014 (Local Time) from KO69 Reporting Station
Broken Clouds Broken Clouds  
Wind Chill: 46°   Ceiling: 2200
Heat Index: 46°   Visibility: 9mi
Dew Point: 46°   Wind: 0mph
Humidity: 100%   Direction: NA
Pressure: 30.11"   Gusts: NA
Location:  38.2181°N, 122.773°W
Report Text: KO69 211035Z AUTO 00000KT 9SM BKN022 08/08 A3011 RMK AO1
Loading
Personal Weather Stations






























Interactive Weather Map
Tropical Storm Tracking
New forecast layout! Learn more

10-Day Weather Forecast

Advertisements
Track Severe Weather on mobile